Login to view Products
 
Tuesday, December 11, 2018 (19:22 UTC)
Abu Dhabi International Airport
Last Updated: 11-Dec-2018 (19:21Z)
Wind Dir/Speed: WSW at 06 kt
Temperature: 23.3°C
Rel. Humidity: 71 %
Pressure: 1017.5 hPa
Visibility: 10000 m
ACTUALS:
  • METAR OMAA 111900Z 27007KT CAVOK 23/18 Q1017 NOSIG
  • TAF OMAA 111700Z 1118/1300 29010KT 8000 NSC BECMG 1220/1222 VRB02KT=
D:\Input Parser\Destinations\Final\17\OMAAL18001700762038130.txt
1